TimePST,TemperatureF,Dew PointF,Humidity,Sea Level PressureIn,VisibilityMPH,Wind Direction,Wind SpeedMPH,Gust SpeedMPH,PrecipitationIn,Events,Conditions,WindDirDegrees,DateUTC
12:56 AM,59.0,42.1,53,30.18,10.0,NNE,3.5,-,N/A,,Clear,30,2013-11-12 08:56:00
1:56 AM,57.0,42.1,57,30.18,10.0,NW,3.5,-,N/A,,Clear,310,2013-11-12 09:56:00
2:56 AM,55.0,43.0,64,30.21,10.0,Calm,Calm,-,N/A,,Clear,0,2013-11-12 10:56:00
3:56 AM,59.0,41.0,51,30.20,10.0,South,3.5,-,N/A,,Clear,170,2013-11-12 11:56:00
4:56 AM,55.9,42.1,60,30.20,10.0,SSE,3.5,-,N/A,,Partly Cloudy,150,2013-11-12 12:56:00
5:56 AM,55.9,43.0,62,30.21,10.0,Calm,Calm,-,N/A,,Clear,0,2013-11-12 13:56:00
6:56 AM,55.9,42.1,60,30.22,10.0,NW,5.8,-,N/A,,Mostly Cloudy,310,2013-11-12 14:56:00
7:56 AM,54.0,45.0,72,30.25,4.0,Calm,Calm,-,0.02,Rain,Light Rain,0,2013-11-12 15:56:00
8:56 AM,57.9,46.0,65,30.26,10.0,West,4.6,-,0.00,,Scattered Clouds,270,2013-11-12 16:56:00
9:56 AM,62.1,46.9,58,30.25,10.0,North,5.8,-,N/A,,Mostly Cloudy,10,2013-11-12 17:56:00
10:56 AM,64.0,43.0,46,30.26,10.0,Calm,Calm,-,N/A,,Mostly Cloudy,0,2013-11-12 18:56:00
11:56 AM,69.1,41.0,36,30.24,10.0,Calm,Calm,-,N/A,,Overcast,0,2013-11-12 19:56:00
12:56 PM,71.1,41.0,34,30.22,10.0,East,3.5,-,N/A,,Overcast,90,2013-11-12 20:56:00
1:56 PM,73.9,37.9,27,30.21,10.0,Calm,Calm,-,N/A,,Overcast,0,2013-11-12 21:56:00
2:56 PM,75.0,37.9,26,30.21,10.0,North,4.6,-,N/A,,Clear,10,2013-11-12 22:56:00
3:56 PM,73.0,39.9,30,30.20,9.0,West,3.5,-,N/A,,Mostly Cloudy,280,2013-11-12 23:56:00
4:56 PM,66.9,43.0,42,30.21,10.0,NNW,4.6,-,N/A,,Partly Cloudy,340,2013-11-13 00:56:00
5:56 PM,61.0,44.1,54,30.23,10.0,Calm,Calm,-,N/A,,Scattered Clouds,0,2013-11-13 01:56:00
6:56 PM,59.0,41.0,51,30.24,10.0,Calm,Calm,-,N/A,,Clear,0,2013-11-13 02:56:00
7:56 PM,57.0,42.1,57,30.25,10.0,Calm,Calm,-,N/A,,Clear,0,2013-11-13 03:56:00
8:56 PM,55.0,43.0,64,30.27,10.0,Calm,Calm,-,N/A,,Clear,0,2013-11-13 04:56:00
9:56 PM,52.0,43.0,71,30.27,10.0,Calm,Calm,-,N/A,,Clear,0,2013-11-13 05:56:00
10:56 PM,48.0,43.0,83,30.28,10.0,Calm,Calm,-,N/A,,Clear,0,2013-11-13 06:56:00
11:56 PM,48.9,42.1,77,30.28,10.0,Calm,Calm,-,N/A,,Clear,0,2013-11-13 07:56:00